sensor_id;sensor_type;location;lat;lon;timestamp;temperature;humidity
16182;DHT22;8197;51.664;7.114;2024-01-30T00:00:57;6.70;98.70
16182;DHT22;8197;51.664;7.114;2024-01-30T00:06:00;6.90;99.40
16182;DHT22;8197;51.664;7.114;2024-01-30T00:11:07;7.00;99.10
16182;DHT22;8197;51.664;7.114;2024-01-30T00:16:20;7.00;99.30
16182;DHT22;8197;51.664;7.114;2024-01-30T00:21:23;7.20;99.10
16182;DHT22;8197;51.664;7.114;2024-01-30T00:26:27;7.20;100.00
16182;DHT22;8197;51.664;7.114;2024-01-30T00:31:31;7.30;99.30
16182;DHT22;8197;51.664;7.114;2024-01-30T00:36:34;7.40;99.20
16182;DHT22;8197;51.664;7.114;2024-01-30T00:41:38;7.50;99.90
16182;DHT22;8197;51.664;7.114;2024-01-30T00:46:41;7.50;99.90
16182;DHT22;8197;51.664;7.114;2024-01-30T00:51:44;7.60;99.40
16182;DHT22;8197;51.664;7.114;2024-01-30T00:56:48;7.60;99.20
16182;DHT22;8197;51.664;7.114;2024-01-30T01:01:51;7.60;99.00
16182;DHT22;8197;51.664;7.114;2024-01-30T01:06:54;7.60;97.80
16182;DHT22;8197;51.664;7.114;2024-01-30T01:11:59;7.50;98.20
16182;DHT22;8197;51.664;7.114;2024-01-30T01:17:02;7.60;98.90
16182;DHT22;8197;51.664;7.114;2024-01-30T01:22:05;7.60;99.30
16182;DHT22;8197;51.664;7.114;2024-01-30T01:27:09;7.60;99.00
16182;DHT22;8197;51.664;7.114;2024-01-30T01:32:13;7.70;99.00
16182;DHT22;8197;51.664;7.114;2024-01-30T01:37:15;7.70;98.70
16182;DHT22;8197;51.664;7.114;2024-01-30T01:42:20;7.70;98.70
16182;DHT22;8197;51.664;7.114;2024-01-30T01:47:24;7.70;98.20
16182;DHT22;8197;51.664;7.114;2024-01-30T01:52:27;7.70;98.00
16182;DHT22;8197;51.664;7.114;2024-01-30T01:57:31;7.70;98.40
16182;DHT22;8197;51.664;7.114;2024-01-30T02:02:36;7.80;98.20
16182;DHT22;8197;51.664;7.114;2024-01-30T02:07:39;7.70;97.30
16182;DHT22;8197;51.664;7.114;2024-01-30T02:12:43;7.70;97.60
16182;DHT22;8197;51.664;7.114;2024-01-30T02:17:46;7.70;97.40
16182;DHT22;8197;51.664;7.114;2024-01-30T02:22:51;7.80;97.80
16182;DHT22;8197;51.664;7.114;2024-01-30T02:27:55;7.70;97.30
16182;DHT22;8197;51.664;7.114;2024-01-30T02:32:58;7.70;97.40
16182;DHT22;8197;51.664;7.114;2024-01-30T02:38:02;7.70;96.90
16182;DHT22;8197;51.664;7.114;2024-01-30T02:43:05;7.60;97.30
16182;DHT22;8197;51.664;7.114;2024-01-30T02:48:08;7.60;97.20
16182;DHT22;8197;51.664;7.114;2024-01-30T02:53:13;7.60;97.30
16182;DHT22;8197;51.664;7.114;2024-01-30T02:58:16;7.60;97.90
16182;DHT22;8197;51.664;7.114;2024-01-30T03:03:19;7.60;97.10
16182;DHT22;8197;51.664;7.114;2024-01-30T03:08:23;7.60;96.50
16182;DHT22;8197;51.664;7.114;2024-01-30T03:13:26;7.50;96.60
16182;DHT22;8197;51.664;7.114;2024-01-30T03:18:29;7.40;96.30
16182;DHT22;8197;51.664;7.114;2024-01-30T03:23:33;7.30;96.40
16182;DHT22;8197;51.664;7.114;2024-01-30T03:28:36;7.40;96.20
16182;DHT22;8197;51.664;7.114;2024-01-30T03:33:39;7.30;97.10
16182;DHT22;8197;51.664;7.114;2024-01-30T03:38:44;7.30;96.60
16182;DHT22;8197;51.664;7.114;2024-01-30T03:43:47;7.20;96.20
16182;DHT22;8197;51.664;7.114;2024-01-30T03:48:50;7.00;96.70
16182;DHT22;8197;51.664;7.114;2024-01-30T03:53:54;7.00;97.50
16182;DHT22;8197;51.664;7.114;2024-01-30T03:58:57;6.90;98.10
16182;DHT22;8197;51.664;7.114;2024-01-30T04:04:01;7.00;99.40
16182;DHT22;8197;51.664;7.114;2024-01-30T04:09:05;7.10;99.10
16182;DHT22;8197;51.664;7.114;2024-01-30T04:14:10;7.10;98.70
16182;DHT22;8197;51.664;7.114;2024-01-30T04:19:13;7.10;98.60
16182;DHT22;8197;51.664;7.114;2024-01-30T04:24:17;7.10;98.20
16182;DHT22;8197;51.664;7.114;2024-01-30T04:29:20;7.00;97.80
16182;DHT22;8197;51.664;7.114;2024-01-30T04:34:24;6.90;98.30
16182;DHT22;8197;51.664;7.114;2024-01-30T04:39:28;7.00;99.60
16182;DHT22;8197;51.664;7.114;2024-01-30T04:44:31;6.90;99.40
16182;DHT22;8197;51.664;7.114;2024-01-30T04:49:34;6.80;98.70
16182;DHT22;8197;51.664;7.114;2024-01-30T04:54:38;6.80;99.30
16182;DHT22;8197;51.664;7.114;2024-01-30T04:59:41;6.90;99.90
16182;DHT22;8197;51.664;7.114;2024-01-30T05:04:44;6.90;100.00
16182;DHT22;8197;51.664;7.114;2024-01-30T05:09:48;7.10;100.00
16182;DHT22;8197;51.664;7.114;2024-01-30T05:14:51;7.20;100.00
16182;DHT22;8197;51.664;7.114;2024-01-30T05:19:54;7.30;99.40
16182;DHT22;8197;51.664;7.114;2024-01-30T05:24:59;7.40;99.80
16182;DHT22;8197;51.664;7.114;2024-01-30T05:30:02;7.50;99.50
16182;DHT22;8197;51.664;7.114;2024-01-30T05:35:05;7.40;98.90
16182;DHT22;8197;51.664;7.114;2024-01-30T05:40:11;7.40;98.20
16182;DHT22;8197;51.664;7.114;2024-01-30T05:45:14;7.30;98.40
16182;DHT22;8197;51.664;7.114;2024-01-30T05:50:17;7.40;98.80
16182;DHT22;8197;51.664;7.114;2024-01-30T05:55:22;7.50;98.80
16182;DHT22;8197;51.664;7.114;2024-01-30T06:00:25;7.60;98.40
16182;DHT22;8197;51.664;7.114;2024-01-30T06:05:27;7.60;98.60
16182;DHT22;8197;51.664;7.114;2024-01-30T06:10:32;7.60;98.10
16182;DHT22;8197;51.664;7.114;2024-01-30T06:15:35;7.60;98.20
16182;DHT22;8197;51.664;7.114;2024-01-30T06:20:37;7.60;97.70
16182;DHT22;8197;51.664;7.114;2024-01-30T06:25:42;7.40;97.80
16182;DHT22;8197;51.664;7.114;2024-01-30T06:30:45;7.30;99.10
16182;DHT22;8197;51.664;7.114;2024-01-30T06:35:48;7.20;98.60
16182;DHT22;8197;51.664;7.114;2024-01-30T06:40:52;7.10;99.00
16182;DHT22;8197;51.664;7.114;2024-01-30T06:45:55;7.00;100.00
16182;DHT22;8197;51.664;7.114;2024-01-30T06:50:58;6.90;100.00
16182;DHT22;8197;51.664;7.114;2024-01-30T06:56:03;7.00;100.00
16182;DHT22;8197;51.664;7.114;2024-01-30T07:01:06;6.90;100.00
16182;DHT22;8197;51.664;7.114;2024-01-30T07:06:10;6.90;100.00
16182;DHT22;8197;51.664;7.114;2024-01-30T07:11:19;6.80;100.00
16182;DHT22;8197;51.664;7.114;2024-01-30T07:16:23;7.00;100.00
16182;DHT22;8197;51.664;7.114;2024-01-30T07:21:26;7.10;100.00
16182;DHT22;8197;51.664;7.114;2024-01-30T07:26:31;7.30;100.00
16182;DHT22;8197;51.664;7.114;2024-01-30T07:31:34;7.40;100.00
16182;DHT22;8197;51.664;7.114;2024-01-30T07:36:37;7.70;100.00
16182;DHT22;8197;51.664;7.114;2024-01-30T07:41:41;7.80;100.00
16182;DHT22;8197;51.664;7.114;2024-01-30T07:46:44;8.00;99.30
16182;DHT22;8197;51.664;7.114;2024-01-30T07:51:47;8.00;98.80
16182;DHT22;8197;51.664;7.114;2024-01-30T08:02:52;8.20;98.20
16182;DHT22;8197;51.664;7.114;2024-01-30T08:07:56;8.20;97.70
16182;DHT22;8197;51.664;7.114;2024-01-30T08:12:59;8.30;97.80
16182;DHT22;8197;51.664;7.114;2024-01-30T08:18:03;8.30;97.20
16182;DHT22;8197;51.664;7.114;2024-01-30T08:23:08;8.50;96.80
16182;DHT22;8197;51.664;7.114;2024-01-30T08:28:12;8.50;96.80
16182;DHT22;8197;51.664;7.114;2024-01-30T08:33:18;8.60;96.60
16182;DHT22;8197;51.664;7.114;2024-01-30T08:38:21;8.60;96.90
16182;DHT22;8197;51.664;7.114;2024-01-30T08:43:23;8.70;96.50
16182;DHT22;8197;51.664;7.114;2024-01-30T08:48:28;8.80;96.60
16182;DHT22;8197;51.664;7.114;2024-01-30T08:53:31;8.80;96.60
16182;DHT22;8197;51.664;7.114;2024-01-30T08:58:34;8.80;96.60
16182;DHT22;8197;51.664;7.114;2024-01-30T09:03:38;8.90;96.70
16182;DHT22;8197;51.664;7.114;2024-01-30T09:08:42;9.10;96.20
16182;DHT22;8197;51.664;7.114;2024-01-30T09:13:45;9.10;96.10
16182;DHT22;8197;51.664;7.114;2024-01-30T09:18:50;9.20;96.00
16182;DHT22;8197;51.664;7.114;2024-01-30T09:23:54;9.30;95.80
16182;DHT22;8197;51.664;7.114;2024-01-30T09:28:57;9.40;95.30
16182;DHT22;8197;51.664;7.114;2024-01-30T09:34:01;9.50;94.70
16182;DHT22;8197;51.664;7.114;2024-01-30T09:39:04;9.50;95.10
16182;DHT22;8197;51.664;7.114;2024-01-30T09:44:09;9.60;94.40
16182;DHT22;8197;51.664;7.114;2024-01-30T09:49:15;9.70;94.40
16182;DHT22;8197;51.664;7.114;2024-01-30T09:54:22;9.90;93.80
16182;DHT22;8197;51.664;7.114;2024-01-30T09:59:25;9.90;93.40
16182;DHT22;8197;51.664;7.114;2024-01-30T10:04:29;10.00;92.80
16182;DHT22;8197;51.664;7.114;2024-01-30T10:09:32;10.20;92.60
16182;DHT22;8197;51.664;7.114;2024-01-30T10:14:38;10.30;92.20
16182;DHT22;8197;51.664;7.114;2024-01-30T10:19:42;10.60;90.90
16182;DHT22;8197;51.664;7.114;2024-01-30T10:24:46;10.70;90.10
16182;DHT22;8197;51.664;7.114;2024-01-30T10:29:50;11.00;89.20
16182;DHT22;8197;51.664;7.114;2024-01-30T10:34:55;11.20;88.10
16182;DHT22;8197;51.664;7.114;2024-01-30T10:40:02;11.50;86.80
16182;DHT22;8197;51.664;7.114;2024-01-30T10:45:09;11.60;86.30
16182;DHT22;8197;51.664;7.114;2024-01-30T10:50:16;11.70;85.80
16182;DHT22;8197;51.664;7.114;2024-01-30T10:55:21;11.70;85.40
16182;DHT22;8197;51.664;7.114;2024-01-30T11:00:27;11.70;85.40
16182;DHT22;8197;51.664;7.114;2024-01-30T11:05:33;11.70;85.50
16182;DHT22;8197;51.664;7.114;2024-01-30T11:10:44;11.70;85.70
16182;DHT22;8197;51.664;7.114;2024-01-30T11:15:47;11.90;85.00
16182;DHT22;8197;51.664;7.114;2024-01-30T11:20:52;11.80;85.40
16182;DHT22;8197;51.664;7.114;2024-01-30T11:25:58;11.70;85.60
16182;DHT22;8197;51.664;7.114;2024-01-30T11:31:05;11.70;85.90
16182;DHT22;8197;51.664;7.114;2024-01-30T11:36:12;11.70;86.70
16182;DHT22;8197;51.664;7.114;2024-01-30T11:41:16;11.70;86.40
16182;DHT22;8197;51.664;7.114;2024-01-30T11:46:20;11.70;86.50
16182;DHT22;8197;51.664;7.114;2024-01-30T11:51:26;11.70;86.50
16182;DHT22;8197;51.664;7.114;2024-01-30T11:56:29;11.70;86.90
16182;DHT22;8197;51.664;7.114;2024-01-30T12:01:32;11.60;87.30
16182;DHT22;8197;51.664;7.114;2024-01-30T12:06:37;11.70;87.00
16182;DHT22;8197;51.664;7.114;2024-01-30T12:11:44;11.70;87.20
16182;DHT22;8197;51.664;7.114;2024-01-30T12:16:48;11.70;87.70
16182;DHT22;8197;51.664;7.114;2024-01-30T12:21:57;11.70;87.80
16182;DHT22;8197;51.664;7.114;2024-01-30T12:27:01;11.70;88.60
16182;DHT22;8197;51.664;7.114;2024-01-30T12:32:04;11.70;88.80
16182;DHT22;8197;51.664;7.114;2024-01-30T12:37:09;11.80;88.30
16182;DHT22;8197;51.664;7.114;2024-01-30T12:42:13;11.80;88.70
16182;DHT22;8197;51.664;7.114;2024-01-30T12:47:16;11.90;88.70
16182;DHT22;8197;51.664;7.114;2024-01-30T12:52:22;11.90;88.90
16182;DHT22;8197;51.664;7.114;2024-01-30T12:57:25;12.00;88.60
16182;DHT22;8197;51.664;7.114;2024-01-30T13:02:28;12.00;88.50
16182;DHT22;8197;51.664;7.114;2024-01-30T13:07:43;11.90;88.30
16182;DHT22;8197;51.664;7.114;2024-01-30T13:12:47;11.90;88.50
16182;DHT22;8197;51.664;7.114;2024-01-30T13:17:50;11.90;88.30
16182;DHT22;8197;51.664;7.114;2024-01-30T13:22:57;11.90;87.90
16182;DHT22;8197;51.664;7.114;2024-01-30T13:28:00;11.90;87.70
16182;DHT22;8197;51.664;7.114;2024-01-30T13:33:05;11.90;87.50
16182;DHT22;8197;51.664;7.114;2024-01-30T13:38:09;11.80;86.60
16182;DHT22;8197;51.664;7.114;2024-01-30T13:43:13;11.90;86.90
16182;DHT22;8197;51.664;7.114;2024-01-30T13:48:16;11.90;87.30
16182;DHT22;8197;51.664;7.114;2024-01-30T13:53:20;11.90;87.70
16182;DHT22;8197;51.664;7.114;2024-01-30T13:58:23;11.80;88.10
16182;DHT22;8197;51.664;7.114;2024-01-30T14:03:27;11.80;89.00
16182;DHT22;8197;51.664;7.114;2024-01-30T14:08:32;11.80;89.00
16182;DHT22;8197;51.664;7.114;2024-01-30T14:13:35;11.80;89.30
16182;DHT22;8197;51.664;7.114;2024-01-30T14:18:38;11.80;89.60
16182;DHT22;8197;51.664;7.114;2024-01-30T14:23:44;11.70;89.30
16182;DHT22;8197;51.664;7.114;2024-01-30T14:28:48;11.80;89.30
16182;DHT22;8197;51.664;7.114;2024-01-30T14:33:51;11.90;89.00
16182;DHT22;8197;51.664;7.114;2024-01-30T14:38:56;12.00;88.30
16182;DHT22;8197;51.664;7.114;2024-01-30T14:43:59;12.00;88.10
16182;DHT22;8197;51.664;7.114;2024-01-30T14:49:04;12.10;87.70
16182;DHT22;8197;51.664;7.114;2024-01-30T14:54:09;12.00;87.40
16182;DHT22;8197;51.664;7.114;2024-01-30T14:59:12;11.90;87.50
16182;DHT22;8197;51.664;7.114;2024-01-30T15:04:16;12.00;86.70
16182;DHT22;8197;51.664;7.114;2024-01-30T15:09:23;11.90;84.80
16182;DHT22;8197;51.664;7.114;2024-01-30T15:14:31;11.70;83.90
16182;DHT22;8197;51.664;7.114;2024-01-30T15:19:34;11.70;82.50
16182;DHT22;8197;51.664;7.114;2024-01-30T15:24:39;11.60;79.20
16182;DHT22;8197;51.664;7.114;2024-01-30T15:29:42;11.50;76.20
16182;DHT22;8197;51.664;7.114;2024-01-30T15:34:48;11.40;76.30
16182;DHT22;8197;51.664;7.114;2024-01-30T15:39:52;11.40;76.70
16182;DHT22;8197;51.664;7.114;2024-01-30T15:44:55;11.30;75.10
16182;DHT22;8197;51.664;7.114;2024-01-30T15:50:00;11.20;72.60
16182;DHT22;8197;51.664;7.114;2024-01-30T15:55:05;11.10;72.50
16182;DHT22;8197;51.664;7.114;2024-01-30T16:00:09;11.10;72.50
16182;DHT22;8197;51.664;7.114;2024-01-30T16:05:17;11.10;73.20
16182;DHT22;8197;51.664;7.114;2024-01-30T16:10:22;11.00;73.60
16182;DHT22;8197;51.664;7.114;2024-01-30T16:15:25;10.90;73.80
16182;DHT22;8197;51.664;7.114;2024-01-30T16:20:28;10.70;73.70
16182;DHT22;8197;51.664;7.114;2024-01-30T16:25:32;10.70;73.40
16182;DHT22;8197;51.664;7.114;2024-01-30T16:30:35;10.50;72.40
16182;DHT22;8197;51.664;7.114;2024-01-30T16:35:40;10.50;73.10
16182;DHT22;8197;51.664;7.114;2024-01-30T16:40:49;10.60;71.80
16182;DHT22;8197;51.664;7.114;2024-01-30T16:45:53;10.60;73.20
16182;DHT22;8197;51.664;7.114;2024-01-30T16:50:56;10.60;72.50
16182;DHT22;8197;51.664;7.114;2024-01-30T16:56:00;10.50;72.60
16182;DHT22;8197;51.664;7.114;2024-01-30T17:01:03;10.60;72.30
16182;DHT22;8197;51.664;7.114;2024-01-30T17:06:06;10.60;72.70
16182;DHT22;8197;51.664;7.114;2024-01-30T17:11:11;10.50;73.00
16182;DHT22;8197;51.664;7.114;2024-01-30T17:16:14;10.50;73.10
16182;DHT22;8197;51.664;7.114;2024-01-30T17:21:26;10.50;73.40
16182;DHT22;8197;51.664;7.114;2024-01-30T17:26:31;10.50;73.70
16182;DHT22;8197;51.664;7.114;2024-01-30T17:31:35;10.50;74.00
16182;DHT22;8197;51.664;7.114;2024-01-30T17:36:39;10.20;80.70
16182;DHT22;8197;51.664;7.114;2024-01-30T17:41:43;9.90;84.20
16182;DHT22;8197;51.664;7.114;2024-01-30T17:46:46;9.80;87.40
16182;DHT22;8197;51.664;7.114;2024-01-30T17:51:49;9.60;88.80
16182;DHT22;8197;51.664;7.114;2024-01-30T17:56:54;9.50;89.60
16182;DHT22;8197;51.664;7.114;2024-01-30T18:01:57;9.40;90.50
16182;DHT22;8197;51.664;7.114;2024-01-30T18:07:00;9.40;90.30
16182;DHT22;8197;51.664;7.114;2024-01-30T18:12:05;9.40;90.80
16182;DHT22;8197;51.664;7.114;2024-01-30T18:17:11;9.30;91.80
16182;DHT22;8197;51.664;7.114;2024-01-30T18:22:14;9.30;92.20
16182;DHT22;8197;51.664;7.114;2024-01-30T18:27:18;9.30;92.10
16182;DHT22;8197;51.664;7.114;2024-01-30T18:32:23;9.30;92.00
16182;DHT22;8197;51.664;7.114;2024-01-30T18:37:25;9.20;92.00
16182;DHT22;8197;51.664;7.114;2024-01-30T18:42:30;9.10;91.80
16182;DHT22;8197;51.664;7.114;2024-01-30T18:47:33;9.20;91.30
16182;DHT22;8197;51.664;7.114;2024-01-30T18:52:36;9.20;91.10
16182;DHT22;8197;51.664;7.114;2024-01-30T18:57:40;9.20;90.10
16182;DHT22;8197;51.664;7.114;2024-01-30T19:02:43;9.10;89.70
16182;DHT22;8197;51.664;7.114;2024-01-30T19:07:46;9.00;89.90
16182;DHT22;8197;51.664;7.114;2024-01-30T19:12:52;9.00;90.10
16182;DHT22;8197;51.664;7.114;2024-01-30T19:17:58;9.00;89.40
16182;DHT22;8197;51.664;7.114;2024-01-30T19:23:01;9.00;90.40
16182;DHT22;8197;51.664;7.114;2024-01-30T19:28:05;8.90;92.20
16182;DHT22;8197;51.664;7.114;2024-01-30T19:33:09;8.80;93.20
16182;DHT22;8197;51.664;7.114;2024-01-30T19:38:12;8.70;93.70
16182;DHT22;8197;51.664;7.114;2024-01-30T19:43:17;8.70;94.30
16182;DHT22;8197;51.664;7.114;2024-01-30T19:48:20;8.70;94.40
16182;DHT22;8197;51.664;7.114;2024-01-30T19:53:23;8.70;94.30
16182;DHT22;8197;51.664;7.114;2024-01-30T19:58:27;8.60;94.20
16182;DHT22;8197;51.664;7.114;2024-01-30T20:03:30;8.60;93.80
16182;DHT22;8197;51.664;7.114;2024-01-30T20:08:35;8.60;93.70
16182;DHT22;8197;51.664;7.114;2024-01-30T20:13:39;8.60;93.70
16182;DHT22;8197;51.664;7.114;2024-01-30T20:18:42;8.70;93.40
16182;DHT22;8197;51.664;7.114;2024-01-30T20:23:45;8.70;93.80
16182;DHT22;8197;51.664;7.114;2024-01-30T20:28:51;8.70;93.70
16182;DHT22;8197;51.664;7.114;2024-01-30T20:33:56;8.70;93.80
16182;DHT22;8197;51.664;7.114;2024-01-30T20:38:59;8.60;94.40
16182;DHT22;8197;51.664;7.114;2024-01-30T20:44:03;8.60;95.00
16182;DHT22;8197;51.664;7.114;2024-01-30T20:49:07;8.60;95.10
16182;DHT22;8197;51.664;7.114;2024-01-30T20:54:14;8.60;95.40
16182;DHT22;8197;51.664;7.114;2024-01-30T20:59:18;8.50;96.30
16182;DHT22;8197;51.664;7.114;2024-01-30T21:04:22;8.50;96.20
16182;DHT22;8197;51.664;7.114;2024-01-30T21:09:25;8.50;96.60
16182;DHT22;8197;51.664;7.114;2024-01-30T21:14:30;8.50;97.90
16182;DHT22;8197;51.664;7.114;2024-01-30T21:19:32;8.40;98.20
16182;DHT22;8197;51.664;7.114;2024-01-30T21:24:35;8.40;98.10
16182;DHT22;8197;51.664;7.114;2024-01-30T21:29:40;8.50;97.70
16182;DHT22;8197;51.664;7.114;2024-01-30T21:34:45;8.40;99.40
16182;DHT22;8197;51.664;7.114;2024-01-30T21:39:48;8.30;100.00
16182;DHT22;8197;51.664;7.114;2024-01-30T21:44:52;8.30;100.00
16182;DHT22;8197;51.664;7.114;2024-01-30T21:49:56;8.20;100.00
16182;DHT22;8197;51.664;7.114;2024-01-30T21:54:59;8.20;100.00
16182;DHT22;8197;51.664;7.114;2024-01-30T22:00:08;8.20;100.00
16182;DHT22;8197;51.664;7.114;2024-01-30T22:05:11;8.20;100.00
16182;DHT22;8197;51.664;7.114;2024-01-30T22:10:14;8.10;100.00
16182;DHT22;8197;51.664;7.114;2024-01-30T22:15:19;8.20;100.00
16182;DHT22;8197;51.664;7.114;2024-01-30T22:20:22;8.10;100.00
16182;DHT22;8197;51.664;7.114;2024-01-30T22:25:25;8.10;100.00
16182;DHT22;8197;51.664;7.114;2024-01-30T22:30:29;8.00;100.00
16182;DHT22;8197;51.664;7.114;2024-01-30T22:35:32;8.00;100.00
16182;DHT22;8197;51.664;7.114;2024-01-30T22:40:35;7.90;100.00
16182;DHT22;8197;51.664;7.114;2024-01-30T22:45:40;7.90;100.00
16182;DHT22;8197;51.664;7.114;2024-01-30T22:50:43;7.90;100.00
16182;DHT22;8197;51.664;7.114;2024-01-30T22:55:46;7.80;100.00
16182;DHT22;8197;51.664;7.114;2024-01-30T23:00:51;7.80;100.00
16182;DHT22;8197;51.664;7.114;2024-01-30T23:05:54;7.80;100.00
16182;DHT22;8197;51.664;7.114;2024-01-30T23:10:57;7.80;100.00
16182;DHT22;8197;51.664;7.114;2024-01-30T23:16:01;7.80;100.00
16182;DHT22;8197;51.664;7.114;2024-01-30T23:21:04;7.70;100.00
16182;DHT22;8197;51.664;7.114;2024-01-30T23:26:07;7.70;100.00
16182;DHT22;8197;51.664;7.114;2024-01-30T23:31:11;7.70;100.00
16182;DHT22;8197;51.664;7.114;2024-01-30T23:36:15;7.60;100.00
16182;DHT22;8197;51.664;7.114;2024-01-30T23:41:18;7.60;100.00
16182;DHT22;8197;51.664;7.114;2024-01-30T23:46:23;7.60;100.00
16182;DHT22;8197;51.664;7.114;2024-01-30T23:51:26;7.60;100.00
16182;DHT22;8197;51.664;7.114;2024-01-30T23:56:29;7.50;100.00
